Time;durP1;ratioP1;P1;durP2;ratioP2;P2;SDS_P1;SDS_P2;PMS_P1;PMS_P2;Temp;Humidity;BMP_temperature;BMP_pressure;BME280_temperature;BME280_humidity;BME280_pressure;Samples;Min_cycle;Max_cycle;Signal;HPM_P1;HPM_P2
2023/01/19 00:02:24;;;;;;;5.15;2.90;;;10.30;81.00;;;;;;5014026;28;20033;-70
2023/01/19 00:04:49;;;;;;;4.10;2.70;;;10.30;81.00;;;;;;5013838;28;20506;-68
2023/01/19 00:07:15;;;;;;;3.35;2.63;;;10.30;81.10;;;;;;5013968;28;20076;-69
2023/01/19 00:09:41;;;;;;;4.93;2.80;;;10.30;81.10;;;;;;5012472;28;20054;-69
2023/01/19 00:12:07;;;;;;;4.63;2.65;;;10.30;81.10;;;;;;5013989;28;20068;-69
2023/01/19 00:14:33;;;;;;;6.28;2.85;;;10.30;81.10;;;;;;5014307;28;20049;-68
2023/01/19 00:17:00;;;;;;;3.97;2.72;;;10.30;81.10;;;;;;5013974;28;20030;-70
2023/01/19 00:19:26;;;;;;;5.03;2.83;;;10.30;81.10;;;;;;5012751;28;20022;-70
2023/01/19 00:21:52;;;;;;;3.95;2.60;;;10.30;81.10;;;;;;5014057;28;20029;-70
2023/01/19 00:24:18;;;;;;;4.43;2.65;;;10.30;81.10;;;;;;5013811;28;20024;-70
2023/01/19 00:26:44;;;;;;;5.38;3.17;;;10.30;81.10;;;;;;5012520;28;20088;-70
2023/01/19 00:29:10;;;;;;;5.00;2.85;;;10.20;81.00;;;;;;5014059;28;20030;-70
2023/01/19 00:31:36;;;;;;;3.88;2.95;;;10.30;81.00;;;;;;5013852;28;20034;-70
2023/01/19 00:34:02;;;;;;;3.55;2.42;;;10.30;81.00;;;;;;5013553;28;20430;-70
2023/01/19 00:36:28;;;;;;;3.88;2.53;;;10.30;81.00;;;;;;5013553;28;20482;-70
2023/01/19 00:38:54;;;;;;;4.43;2.80;;;10.20;81.00;;;;;;5013458;28;20030;-70
2023/01/19 00:42:38;;;;;;;5.55;3.03;;;10.20;81.00;;;;;;5012545;28;20029;-70
2023/01/19 00:44:05;;;;;;;4.57;2.88;;;10.30;81.00;;;;;;5013885;28;20030;-70
2023/01/19 00:46:31;;;;;;;6.18;2.90;;;10.30;81.00;;;;;;5013460;28;20045;-70
2023/01/19 00:48:56;;;;;;;6.45;2.85;;;10.20;80.90;;;;;;5013675;28;20041;-70
2023/01/19 00:51:22;;;;;;;5.32;2.70;;;10.30;81.00;;;;;;5013770;28;20022;-70
2023/01/19 00:53:47;;;;;;;4.93;2.75;;;10.20;80.90;;;;;;5017262;28;20032;-70
2023/01/19 00:56:13;;;;;;;3.10;2.72;;;10.20;81.00;;;;;;5017617;28;20116;-70
2023/01/19 00:58:39;;;;;;;4.65;3.03;;;10.20;81.00;;;;;;5017127;28;20026;-70
2023/01/19 01:01:04;;;;;;;5.32;2.67;;;10.20;81.00;;;;;;5017204;28;20467;-70
2023/01/19 01:03:31;;;;;;;3.97;2.70;;;10.20;81.00;;;;;;5017030;28;20033;-70
2023/01/19 01:05:57;;;;;;;4.50;2.83;;;10.20;81.00;;;;;;5016837;28;20049;-70
2023/01/19 01:08:23;;;;;;;6.43;3.17;;;10.20;81.00;;;;;;5017356;28;20068;-70
2023/01/19 01:10:49;;;;;;;4.57;2.80;;;10.20;81.00;;;;;;5016992;28;20057;-69
2023/01/19 01:13:15;;;;;;;4.72;2.80;;;10.20;81.00;;;;;;5015560;28;20037;-69
2023/01/19 01:15:41;;;;;;;3.15;2.50;;;10.20;80.90;;;;;;5017243;28;20379;-69
2023/01/19 01:18:07;;;;;;;5.80;2.70;;;10.20;80.80;;;;;;5015483;28;20029;-69
2023/01/19 01:20:35;;;;;;;3.97;2.80;;;10.20;80.80;;;;;;5016758;28;20079;-69
2023/01/19 01:23:02;;;;;;;5.95;2.65;;;10.20;80.80;;;;;;5016991;28;20101;-70
2023/01/19 01:25:29;;;;;;;4.53;2.90;;;10.20;80.70;;;;;;5016009;28;20121;-69
2023/01/19 01:27:55;;;;;;;3.63;2.63;;;10.20;80.70;;;;;;5016751;28;20113;-70
2023/01/19 01:30:21;;;;;;;4.88;3.00;;;10.20;80.70;;;;;;5016671;28;20110;-70
2023/01/19 01:32:47;;;;;;;5.30;2.95;;;10.20;80.70;;;;;;5015263;28;20041;-69
2023/01/19 01:35:14;;;;;;;5.03;2.90;;;10.20;80.70;;;;;;5016526;28;20044;-69
2023/01/19 01:37:41;;;;;;;4.50;2.97;;;10.20;80.70;;;;;;5015262;28;20029;-69
2023/01/19 01:40:09;;;;;;;4.80;2.85;;;10.20;80.70;;;;;;5016813;28;20032;-69
2023/01/19 01:42:34;;;;;;;4.20;2.90;;;10.20;80.70;;;;;;5016471;28;20037;-70
2023/01/19 01:45:04;;;;;;;4.35;2.90;;;10.10;80.70;;;;;;5016203;28;20029;-69
2023/01/19 01:47:48;;;;;;;3.47;2.55;;;10.10;80.70;;;;;;5016238;28;20034;-69
2023/01/19 01:50:22;;;;;;;3.75;2.72;;;10.10;80.70;;;;;;5016642;28;20033;-69
2023/01/19 01:52:49;;;;;;;3.10;2.58;;;10.10;80.80;;;;;;5016522;28;20033;-69
2023/01/19 01:55:17;;;;;;;4.22;2.85;;;10.00;80.80;;;;;;5015030;28;20034;-69
2023/01/19 01:57:50;;;;;;;4.88;2.90;;;10.00;80.80;;;;;;5014917;28;20030;-70
2023/01/19 02:00:16;;;;;;;3.42;2.60;;;10.00;80.80;;;;;;5016085;28;20438;-69
2023/01/19 02:02:52;;;;;;;4.95;2.97;;;10.00;80.80;;;;;;5015734;28;20534;-69
2023/01/19 02:05:32;;;;;;;5.25;2.92;;;10.00;80.90;;;;;;5015910;28;20072;-69
2023/01/19 02:13:35;;;;;;;4.22;2.75;;;10.00;81.00;;;;;;5015855;28;20486;-70
2023/01/19 02:16:05;;;;;;;6.53;2.90;;;10.00;80.90;;;;;;5015624;28;20053;-69
2023/01/19 02:18:31;;;;;;;5.85;3.35;;;10.00;81.00;;;;;;5015785;28;20057;-69
2023/01/19 02:21:06;;;;;;;4.57;3.08;;;10.00;81.00;;;;;;5015824;28;20022;-69
2023/01/19 02:23:42;;;;;;;4.65;2.80;;;10.00;81.00;;;;;;5015723;28;20105;-69
2023/01/19 02:26:10;;;;;;;5.53;3.00;;;10.00;81.00;;;;;;5015610;28;20491;-70
2023/01/19 02:28:40;;;;;;;4.47;3.40;;;10.00;80.90;;;;;;5015450;28;20029;-69
2023/01/19 02:31:06;;;;;;;5.85;3.38;;;10.00;81.00;;;;;;5015370;28;20034;-69
2023/01/19 02:33:32;;;;;;;7.30;3.20;;;10.00;80.90;;;;;;5015186;28;20030;-70
2023/01/19 02:35:59;;;;;;;6.07;3.55;;;10.00;80.90;;;;;;5015230;28;20438;-69
2023/01/19 02:38:27;;;;;;;6.28;3.35;;;10.00;80.80;;;;;;5015666;28;20037;-69
2023/01/19 02:40:56;;;;;;;8.23;3.70;;;10.10;80.90;;;;;;5014087;28;20025;-69
2023/01/19 02:43:23;;;;;;;6.57;3.33;;;10.10;80.90;;;;;;5015336;28;20029;-69
2023/01/19 02:45:49;;;;;;;5.72;3.10;;;10.10;80.80;;;;;;5013698;28;20034;-69
2023/01/19 02:48:17;;;;;;;6.30;2.97;;;10.10;80.80;;;;;;5015377;28;20029;-69
2023/01/19 02:50:47;;;;;;;4.97;3.17;;;10.10;80.80;;;;;;5015141;28;20030;-70
2023/01/19 02:53:31;;;;;;;5.95;3.00;;;10.10;80.80;;;;;;5015209;28;20029;-70
2023/01/19 02:56:23;;;;;;;5.97;2.95;;;10.10;80.80;;;;;;5015246;28;20034;-69
2023/01/19 02:59:34;;;;;;;4.40;3.15;;;10.10;80.80;;;;;;5015550;28;20030;-69
2023/01/19 03:02:29;;;;;;;4.05;2.90;;;10.10;80.80;;;;;;4973770;28;20054;-69
2023/01/19 03:05:18;;;;;;;3.85;3.13;;;10.10;80.80;;;;;;4973645;28;20105;-69
2023/01/19 03:08:13;;;;;;;4.57;3.22;;;10.10;80.80;;;;;;5003639;28;20487;-69
2023/01/19 03:11:05;;;;;;;5.28;3.20;;;10.10;80.80;;;;;;5013528;28;20088;-69
2023/01/19 03:13:33;;;;;;;4.75;3.10;;;10.10;80.90;;;;;;5013504;28;20037;-69
2023/01/19 03:15:59;;;;;;;3.70;3.05;;;10.10;80.80;;;;;;5014274;28;20038;-69
2023/01/19 03:18:27;;;;;;;4.65;3.05;;;10.00;80.80;;;;;;5014578;28;20076;-69
2023/01/19 03:20:57;;;;;;;5.43;3.50;;;10.00;80.90;;;;;;5014526;28;20037;-69
2023/01/19 03:23:29;;;;;;;3.78;3.00;;;10.00;80.90;;;;;;5014593;28;20026;-68
2023/01/19 03:25:57;;;;;;;4.43;3.40;;;10.00;80.90;;;;;;5015153;28;20034;-69
2023/01/19 03:28:26;;;;;;;6.85;3.83;;;10.10;81.00;;;;;;5014716;28;20026;-69
2023/01/19 03:30:57;;;;;;;3.75;3.20;;;10.10;80.90;;;;;;5014500;28;20030;-69
2023/01/19 03:33:28;;;;;;;3.95;3.13;;;10.10;80.90;;;;;;5014553;28;20040;-69
2023/01/19 03:36:02;;;;;;;4.07;3.20;;;10.10;80.90;;;;;;5014446;28;20073;-70
2023/01/19 03:38:33;;;;;;;4.30;3.30;;;10.10;80.90;;;;;;5014681;28;20407;-69
2023/01/19 03:41:01;;;;;;;5.40;3.40;;;10.10;80.90;;;;;;5013160;28;20037;-69
2023/01/19 03:43:29;;;;;;;4.65;3.30;;;10.10;80.90;;;;;;5014333;28;20109;-70
2023/01/19 03:45:55;;;;;;;4.63;3.22;;;10.10;80.90;;;;;;5012816;28;20376;-69
2023/01/19 03:48:21;;;;;;;4.50;3.75;;;10.10;80.90;;;;;;5014140;28;20169;-70
2023/01/19 03:50:47;;;;;;;5.35;3.72;;;10.00;80.90;;;;;;5014626;28;20034;-69
2023/01/19 03:53:15;;;;;;;5.75;4.30;;;10.10;81.00;;;;;;5014238;28;20487;-69
2023/01/19 03:55:44;;;;;;;6.93;4.70;;;10.10;81.60;;;;;;5014316;28;20026;-69
2023/01/19 03:58:10;;;;;;;6.97;4.47;;;10.00;80.90;;;;;;5014170;28;20048;-69
2023/01/19 04:00:36;;;;;;;7.65;4.68;;;10.10;81.00;;;;;;5014096;28;20022;-69
2023/01/19 04:03:10;;;;;;;6.95;4.75;;;10.00;81.00;;;;;;5012688;28;20052;-69
2023/01/19 04:05:36;;;;;;;8.55;5.20;;;10.00;81.00;;;;;;5013933;28;20038;-68
2023/01/19 04:08:02;;;;;;;7.82;5.30;;;10.00;81.00;;;;;;5013031;28;20060;-69
2023/01/19 04:10:27;;;;;;;8.20;4.95;;;10.00;81.00;;;;;;5012741;28;20080;-69
2023/01/19 04:13:01;;;;;;;7.63;5.32;;;10.00;81.00;;;;;;5013965;28;20033;-69
2023/01/19 04:15:26;;;;;;;8.13;5.07;;;10.00;81.00;;;;;;5012689;28;20033;-69
2023/01/19 04:17:52;;;;;;;10.50;6.20;;;10.00;81.00;;;;;;5012407;28;20395;-70
2023/01/19 04:20:20;;;;;;;6.63;5.00;;;10.00;81.00;;;;;;5013759;28;20026;-70
2023/01/19 04:22:46;;;;;;;7.45;5.32;;;10.00;81.00;;;;;;5012860;28;20061;-70
2023/01/19 04:25:12;;;;;;;7.88;5.45;;;10.00;81.00;;;;;;5013767;28;20069;-70
2023/01/19 04:27:37;;;;;;;8.50;5.80;;;10.00;81.00;;;;;;5016111;28;20026;-69
2023/01/19 04:30:04;;;;;;;8.40;5.95;;;10.10;81.10;;;;;;5017521;28;20041;-70
2023/01/19 04:32:31;;;;;;;10.50;6.40;;;10.10;81.10;;;;;;5016453;28;20042;-69
2023/01/19 04:34:57;;;;;;;9.10;6.13;;;10.10;81.10;;;;;;5016418;28;20479;-69
2023/01/19 04:37:22;;;;;;;10.48;6.10;;;10.00;81.00;;;;;;5017526;28;20026;-69
2023/01/19 04:39:48;;;;;;;12.52;7.32;;;10.00;81.10;;;;;;5017401;28;20410;-69
2023/01/19 04:42:14;;;;;;;11.20;6.78;;;10.10;81.10;;;;;;5017524;28;20038;-69
2023/01/19 04:44:39;;;;;;;10.95;6.65;;;10.10;81.20;;;;;;5015880;28;20025;-69
2023/01/19 04:47:05;;;;;;;11.45;7.53;;;10.00;81.00;;;;;;5017697;28;20056;-69
2023/01/19 04:49:31;;;;;;;13.50;7.88;;;10.10;81.10;;;;;;5017469;28;20452;-69
2023/01/19 04:51:56;;;;;;;12.57;7.75;;;10.00;81.10;;;;;;5017495;28;20021;-69
2023/01/19 04:54:22;;;;;;;15.40;7.70;;;10.00;81.00;;;;;;5017466;28;20026;-68
2023/01/19 04:56:48;;;;;;;13.23;7.97;;;10.10;81.10;;;;;;5015864;28;20116;-69
2023/01/19 04:59:14;;;;;;;15.68;8.75;;;10.10;81.10;;;;;;5017236;28;20109;-68
2023/01/19 05:01:39;;;;;;;14.82;9.02;;;10.10;81.10;;;;;;5015882;28;20037;-69
2023/01/19 05:04:06;;;;;;;14.02;8.73;;;10.10;81.20;;;;;;5017017;28;20030;-69
2023/01/19 05:06:32;;;;;;;14.27;8.55;;;10.10;81.20;;;;;;5016716;28;20140;-69
2023/01/19 15:30:32;;;;;;;2.80;2.33;;;11.60;78.30;;;;;;4572485;27;15048016;-76
2023/01/19 15:32:58;;;;;;;2.05;1.95;;;11.70;80.20;;;;;;5131536;28;20149;-71
2023/01/19 15:35:25;;;;;;;2.70;2.50;;;11.90;80.00;;;;;;5130088;28;20098;-76
2023/01/19 15:37:51;;;;;;;2.15;2.05;;;12.00;79.70;;;;;;5130667;27;20032;-78
2023/01/19 15:40:18;;;;;;;4.45;3.30;;;12.10;79.50;;;;;;5130006;27;20034;-77
2023/01/19 15:42:44;;;;;;;5.28;3.80;;;12.10;79.70;;;;;;5131501;27;20032;-82
2023/01/19 15:45:37;;;;;;;5.53;3.53;;;12.20;80.00;;;;;;5131342;28;20034;-73
2023/01/19 15:48:08;;;;;;;3.97;3.15;;;12.40;80.10;;;;;;5131022;28;20027;-74
2023/01/19 15:50:42;;;;;;;3.83;3.00;;;12.50;79.70;;;;;;5130914;27;20089;-74
2023/01/19 15:53:17;;;;;;;6.88;3.30;;;12.70;79.50;;;;;;5112809;28;20038;-73
2023/01/19 15:55:43;;;;;;;5.93;3.42;;;12.80;79.40;;;;;;5130512;28;20027;-74
2023/01/19 15:58:12;;;;;;;6.47;3.03;;;12.90;79.20;;;;;;5112507;28;20028;-74
2023/01/19 20:04:34;;;;;;;2.53;2.33;;;10.50;79.80;;;;;;5102185;27;20395;-71
2023/01/19 20:07:00;;;;;;;3.30;2.65;;;10.40;79.80;;;;;;5070742;28;20029;-70
2023/01/19 20:09:26;;;;;;;2.67;2.47;;;10.50;80.80;;;;;;5070953;28;20024;-70
2023/01/19 20:11:51;;;;;;;2.67;2.47;;;10.50;81.40;;;;;;5070948;28;20023;-69
2023/01/19 20:14:17;;;;;;;2.88;2.63;;;10.60;81.90;;;;;;5070723;28;20028;-69
2023/01/19 20:16:43;;;;;;;3.35;2.88;;;10.70;82.20;;;;;;5070701;28;20025;-69
2023/01/19 20:19:09;;;;;;;2.90;2.65;;;10.70;82.40;;;;;;5069639;28;20027;-69
2023/01/19 20:21:37;;;;;;;3.50;2.90;;;10.80;82.40;;;;;;5070885;28;20036;-70
2023/01/19 20:24:08;;;;;;;3.67;2.88;;;10.90;82.50;;;;;;5069269;28;20029;-69
2023/01/19 20:26:39;;;;;;;3.47;2.83;;;11.00;82.50;;;;;;5069900;28;20369;-70
2023/01/19 20:29:05;;;;;;;2.88;2.67;;;11.00;82.40;;;;;;5069046;28;20116;-70
2023/01/19 20:31:33;;;;;;;2.95;2.70;;;11.10;82.40;;;;;;5070393;28;20442;-71
2023/01/19 20:34:03;;;;;;;3.28;2.70;;;11.20;82.30;;;;;;5068990;28;20378;-70
2023/01/19 20:36:29;;;;;;;3.15;2.85;;;11.20;82.20;;;;;;5070467;28;20044;-70
2023/01/19 20:38:56;;;;;;;2.67;2.47;;;11.20;82.00;;;;;;5069179;28;20021;-70
2023/01/19 20:41:22;;;;;;;3.80;2.80;;;11.30;82.00;;;;;;5070532;28;20017;-70
2023/01/19 20:43:48;;;;;;;2.95;2.65;;;11.30;81.90;;;;;;5070187;28;20017;-70
2023/01/19 20:46:14;;;;;;;2.95;2.65;;;11.40;82.40;;;;;;5070288;28;20032;-69
2023/01/19 20:48:40;;;;;;;2.67;2.47;;;11.40;81.70;;;;;;5070012;28;20043;-69
2023/01/19 20:51:09;;;;;;;2.90;2.60;;;11.40;81.60;;;;;;5069073;28;20458;-69
2023/01/19 20:53:35;;;;;;;3.10;2.65;;;11.50;81.60;;;;;;5070236;28;20025;-69
2023/01/19 20:56:05;;;;;;;2.88;2.67;;;11.50;81.50;;;;;;5070247;28;20024;-69
2023/01/19 20:58:30;;;;;;;2.80;2.60;;;11.50;81.40;;;;;;5069956;28;20021;-69
2023/01/19 21:00:56;;;;;;;3.38;2.75;;;11.50;81.30;;;;;;5069860;28;20339;-69
2023/01/19 21:03:22;;;;;;;2.85;2.38;;;11.50;81.20;;;;;;5069609;28;20055;-69
2023/01/19 21:05:48;;;;;;;3.05;2.75;;;11.60;81.70;;;;;;5070261;28;20070;-69
2023/01/19 21:08:14;;;;;;;2.72;2.42;;;11.60;81.00;;;;;;5069983;28;20025;-69
2023/01/19 21:10:40;;;;;;;2.80;2.60;;;11.50;80.90;;;;;;5068610;28;20032;-70
2023/01/19 21:13:06;;;;;;;2.65;2.45;;;11.60;80.90;;;;;;5069767;28;20017;-70
2023/01/19 21:15:32;;;;;;;2.63;2.30;;;11.60;80.80;;;;;;5057591;28;20502;-70
2023/01/19 21:18:00;;;;;;;2.50;2.30;;;11.60;80.70;;;;;;5056450;28;20029;-70
2023/01/19 21:20:28;;;;;;;2.95;2.50;;;11.60;80.60;;;;;;5056510;28;20036;-70
2023/01/19 21:22:54;;;;;;;2.83;2.53;;;11.60;80.60;;;;;;5056287;28;20052;-69
2023/01/19 21:25:20;;;;;;;2.88;2.50;;;11.60;80.60;;;;;;5056320;28;20032;-70
2023/01/19 21:27:46;;;;;;;3.50;2.78;;;11.60;80.50;;;;;;5056438;28;20366;-70
2023/01/19 21:30:11;;;;;;;3.38;2.70;;;11.60;80.40;;;;;;5056060;28;20457;-70
2023/01/19 21:32:37;;;;;;;2.50;2.30;;;11.60;80.30;;;;;;5056571;28;20029;-70
2023/01/19 21:35:03;;;;;;;2.72;2.53;;;11.60;80.30;;;;;;5056330;28;20413;-70
2023/01/19 21:37:29;;;;;;;2.75;2.45;;;11.60;80.20;;;;;;5056224;28;20094;-70
2023/01/19 21:39:55;;;;;;;2.97;2.50;;;11.60;80.20;;;;;;5054737;28;20022;-70
2023/01/19 21:42:21;;;;;;;2.78;2.35;;;11.60;80.10;;;;;;5055854;28;20031;-70
2023/01/19 21:44:48;;;;;;;2.75;2.55;;;11.60;80.00;;;;;;5056221;28;20020;-70
2023/01/19 21:47:14;;;;;;;2.97;2.35;;;11.60;80.00;;;;;;5056052;28;20025;-70
2023/01/19 21:49:40;;;;;;;2.90;2.58;;;11.70;80.00;;;;;;5055919;28;20017;-69
2023/01/19 21:52:05;;;;;;;2.83;2.60;;;11.60;79.90;;;;;;5054496;28;20021;-69
2023/01/19 21:54:31;;;;;;;2.58;2.38;;;11.60;80.40;;;;;;5056002;28;20028;-69
2023/01/19 21:56:56;;;;;;;2.40;2.20;;;11.70;79.80;;;;;;5055603;28;20021;-70
2023/01/19 21:59:22;;;;;;;2.47;2.28;;;11.60;80.10;;;;;;5055463;28;20394;-69
2023/01/19 22:01:48;;;;;;;2.70;2.50;;;11.70;79.70;;;;;;5055506;28;20461;-69
2023/01/19 22:04:13;;;;;;;2.60;2.40;;;11.70;79.70;;;;;;5055729;28;20489;-69
2023/01/19 22:06:39;;;;;;;3.75;2.63;;;11.60;79.60;;;;;;5055684;28;20036;-69
2023/01/19 22:09:05;;;;;;;2.58;2.38;;;11.70;79.60;;;;;;5055631;28;20043;-69
2023/01/19 22:11:31;;;;;;;2.97;2.58;;;11.70;79.60;;;;;;5055645;28;20028;-69
2023/01/19 22:13:58;;;;;;;3.08;2.40;;;11.70;79.50;;;;;;5055312;28;20029;-69
2023/01/19 22:16:24;;;;;;;3.33;2.67;;;11.70;79.50;;;;;;5055213;28;20432;-69
2023/01/19 22:18:52;;;;;;;2.60;2.28;;;11.70;79.40;;;;;;5055138;28;20020;-69
2023/01/19 22:21:23;;;;;;;2.70;2.50;;;11.70;79.40;;;;;;5055214;28;20028;-70
2023/01/19 22:23:56;;;;;;;3.25;2.72;;;11.70;79.40;;;;;;5053864;28;20466;-69
2023/01/19 22:26:22;;;;;;;2.58;2.35;;;11.70;79.30;;;;;;5054003;28;20021;-70
2023/01/19 22:28:52;;;;;;;2.67;2.20;;;11.70;79.30;;;;;;5055221;28;20434;-70
2023/01/19 22:31:17;;;;;;;3.28;2.65;;;11.70;79.30;;;;;;5055318;28;20478;-69
2023/01/19 22:33:44;;;;;;;2.67;2.38;;;11.70;79.30;;;;;;5053747;28;20068;-70
2023/01/19 22:36:20;;;;;;;2.72;2.50;;;11.60;79.20;;;;;;5055187;28;20052;-70
2023/01/19 22:38:50;;;;;;;3.28;2.60;;;11.60;79.10;;;;;;5054784;28;20104;-70
2023/01/19 22:41:18;;;;;;;2.63;2.42;;;11.70;79.20;;;;;;5054938;28;20052;-70
2023/01/19 22:43:44;;;;;;;2.80;2.60;;;11.70;79.10;;;;;;5053487;28;20466;-69
2023/01/19 22:46:10;;;;;;;2.50;2.30;;;11.60;79.00;;;;;;5055050;28;20067;-69
2023/01/19 22:48:35;;;;;;;2.55;2.35;;;11.70;79.10;;;;;;5053772;28;20048;-70
